createdAt,value
2023-11-17T00:01:08.359Z,0.43
2023-11-17T00:03:35.116Z,0.42
2023-11-17T00:06:01.766Z,0.41
2023-11-17T00:08:28.363Z,0.22
2023-11-17T00:10:54.967Z,0.33
2023-11-17T00:13:21.577Z,0.31
2023-11-17T00:15:48.272Z,0.36
2023-11-17T00:18:14.894Z,0.29
2023-11-17T00:20:41.477Z,0.31
2023-11-17T00:23:08.101Z,0.28
2023-11-17T00:25:34.720Z,0.34
2023-11-17T00:28:01.308Z,0.31
2023-11-17T00:30:27.905Z,0.27
2023-11-17T00:32:54.557Z,0.35
2023-11-17T00:35:21.206Z,0.26
2023-11-17T00:37:47.776Z,0.41
2023-11-17T00:40:14.412Z,0.34
2023-11-17T00:42:41.080Z,0.27
2023-11-17T00:45:07.743Z,0.29
2023-11-17T00:47:34.354Z,0.26
2023-11-17T00:50:00.970Z,0.25
2023-11-17T00:52:27.574Z,0.29
2023-11-17T00:54:54.202Z,0.22
2023-11-17T00:57:20.805Z,0.24
2023-11-17T00:59:47.373Z,0.19
2023-11-17T01:02:14.092Z,0.35
2023-11-17T01:04:40.732Z,0.24
2023-11-17T01:07:07.456Z,0.25
2023-11-17T01:09:34.186Z,0.18
2023-11-17T01:12:00.806Z,0.26
2023-11-17T01:14:27.416Z,0.19
2023-11-17T01:16:54.009Z,0.12
2023-11-17T01:19:20.807Z,0.22
2023-11-17T01:21:47.450Z,0.12
2023-11-17T01:24:14.053Z,0.19
2023-11-17T01:26:40.657Z,0.16
2023-11-17T01:29:07.289Z,0.19
2023-11-17T01:31:33.895Z,0.12
2023-11-17T01:34:00.658Z,0.08
2023-11-17T01:36:27.469Z,0.22
2023-11-17T01:38:54.984Z,0.18
2023-11-17T01:41:21.730Z,0.13
2023-11-17T01:43:48.353Z,0.15
2023-11-17T01:46:15.026Z,0.16
2023-11-17T01:48:41.656Z,0.11
2023-11-17T01:51:08.262Z,0.18
2023-11-17T01:53:34.845Z,0.18
2023-11-17T01:56:01.444Z,0.11
2023-11-17T01:58:28.056Z,0.10
2023-11-17T02:00:54.656Z,0.09
2023-11-17T02:03:21.381Z,0.16
2023-11-17T02:05:47.997Z,0.08
2023-11-17T02:08:14.589Z,0.11
2023-11-17T02:10:41.167Z,0.15
2023-11-17T02:13:07.761Z,0.15
2023-11-17T02:15:36.358Z,0.19
2023-11-17T02:18:03.144Z,0.12
2023-11-17T02:20:29.742Z,0.19
2023-11-17T02:22:56.313Z,0.10
2023-11-17T02:25:22.938Z,0.11
2023-11-17T02:27:49.563Z,0.12
2023-11-17T02:30:16.165Z,0.16
2023-11-17T02:32:42.781Z,0.14
2023-11-17T02:35:09.429Z,0.22
2023-11-17T02:37:36.076Z,0.11
2023-11-17T02:40:02.764Z,0.13
2023-11-17T02:42:29.359Z,0.18
2023-11-17T02:44:55.930Z,0.11
2023-11-17T02:47:22.543Z,0.16
2023-11-17T02:49:49.159Z,0.13
2023-11-17T02:52:15.757Z,0.09
2023-11-17T02:54:42.387Z,0.15
2023-11-17T02:57:09.001Z,0.13
2023-11-17T02:59:35.626Z,0.13
2023-11-17T03:02:02.248Z,0.13
2023-11-17T03:04:28.957Z,0.11
2023-11-17T03:06:55.567Z,0.14
2023-11-17T03:09:22.215Z,0.08
2023-11-17T03:11:48.828Z,0.17
2023-11-17T03:14:15.425Z,0.17
2023-11-17T03:16:42.164Z,0.09
2023-11-17T03:19:08.824Z,0.22
2023-11-17T03:21:35.402Z,0.12
2023-11-17T03:24:01.964Z,0.15
2023-11-17T03:26:28.547Z,0.09
2023-11-17T03:28:55.142Z,0.13
2023-11-17T03:31:21.846Z,0.11
2023-11-17T03:33:48.556Z,0.15
2023-11-17T03:36:15.201Z,0.14
2023-11-17T03:38:41.818Z,0.14
2023-11-17T03:41:08.424Z,0.15
2023-11-17T03:43:35.045Z,0.15
2023-11-17T03:46:01.705Z,0.15
2023-11-17T03:48:28.338Z,0.08
2023-11-17T03:50:54.933Z,0.11
2023-11-17T03:53:21.510Z,0.12
2023-11-17T03:55:48.130Z,0.13
2023-11-17T03:58:14.746Z,0.12
2023-11-17T04:00:41.357Z,0.18
2023-11-17T04:03:08.074Z,0.12
2023-11-17T04:05:34.676Z,0.13
2023-11-17T04:08:01.260Z,0.08
2023-11-17T04:10:27.902Z,0.26
2023-11-17T04:12:54.550Z,0.62
2023-11-17T04:15:21.143Z,0.44
2023-11-17T04:17:47.801Z,0.36
2023-11-17T04:20:14.422Z,0.19
2023-11-17T04:22:41.061Z,0.19
2023-11-17T04:25:07.716Z,0.13
2023-11-17T04:27:34.342Z,0.11
2023-11-17T04:30:00.916Z,0.11
2023-11-17T04:32:27.542Z,0.17
2023-11-17T04:34:54.255Z,0.19
2023-11-17T04:37:20.955Z,0.12
2023-11-17T04:39:47.559Z,0.17
2023-11-17T04:42:14.158Z,0.18
2023-11-17T04:44:40.728Z,0.23
2023-11-17T04:47:07.330Z,0.21
2023-11-17T04:49:33.916Z,1.15
2023-11-17T04:52:00.613Z,1.50
2023-11-17T04:54:27.277Z,0.95
2023-11-17T04:56:53.884Z,0.27
2023-11-17T04:59:20.455Z,0.17
2023-11-17T05:01:47.128Z,0.28
2023-11-17T05:04:13.782Z,0.21
2023-11-17T05:06:40.392Z,0.21
2023-11-17T05:09:06.957Z,0.24
2023-11-17T05:11:33.561Z,0.19
2023-11-17T05:14:00.145Z,0.49
2023-11-17T05:16:26.834Z,0.30
2023-11-17T05:18:53.533Z,0.31
2023-11-17T05:21:20.140Z,0.33
2023-11-17T05:23:46.736Z,0.30
2023-11-17T05:26:13.305Z,0.22
2023-11-17T05:28:39.922Z,0.24
2023-11-17T05:31:06.653Z,0.30
2023-11-17T05:33:33.351Z,0.38
2023-11-17T05:35:59.917Z,0.40
2023-11-17T05:38:26.553Z,0.37
2023-11-17T05:40:53.175Z,0.36
2023-11-17T05:43:19.838Z,0.29
2023-11-17T05:45:46.454Z,0.30
2023-11-17T05:48:13.132Z,0.25
2023-11-17T05:50:39.749Z,0.23
2023-11-17T05:53:06.499Z,0.26
2023-11-17T05:55:33.208Z,0.24
2023-11-17T05:57:59.817Z,0.26
2023-11-17T06:00:26.392Z,0.29
2023-11-17T06:02:53.051Z,0.18
2023-11-17T06:05:19.691Z,0.17
2023-11-17T06:07:46.271Z,0.24
2023-11-17T06:10:12.898Z,0.28
2023-11-17T06:12:39.595Z,0.28
2023-11-17T06:15:06.216Z,0.19
2023-11-17T06:17:32.959Z,0.24
2023-11-17T06:19:59.584Z,0.14
2023-11-17T06:22:26.204Z,0.14
2023-11-17T06:24:52.855Z,0.28
2023-11-17T06:27:19.452Z,0.21
2023-11-17T06:29:46.055Z,0.23
2023-11-17T06:32:12.741Z,0.21
2023-11-17T06:34:39.360Z,0.29
2023-11-17T06:37:06.008Z,0.31
2023-11-17T06:39:32.673Z,0.27
2023-11-17T06:41:59.207Z,0.24
2023-11-17T06:44:25.751Z,0.12
2023-11-17T06:46:52.469Z,0.24
2023-11-17T06:49:19.157Z,0.23
2023-11-17T06:51:45.767Z,0.26
2023-11-17T06:54:12.369Z,0.31
2023-11-17T06:56:39.022Z,0.28
2023-11-17T06:59:05.569Z,0.25
2023-11-17T07:01:32.245Z,0.34
2023-11-17T07:03:58.886Z,0.49
2023-11-17T07:06:25.648Z,0.36
2023-11-17T07:08:52.231Z,0.30
2023-11-17T07:11:18.791Z,0.41
2023-11-17T07:13:45.333Z,0.35
2023-11-17T07:16:11.945Z,0.36
2023-11-17T07:18:38.531Z,0.35
2023-11-17T07:21:05.120Z,0.36
2023-11-17T07:23:31.670Z,0.29
2023-11-17T07:25:58.220Z,0.41
2023-11-17T07:28:24.761Z,0.33
2023-11-17T07:30:51.333Z,0.44
2023-11-17T07:33:17.969Z,0.39
2023-11-17T07:35:44.537Z,0.42
2023-11-17T07:38:11.079Z,0.38
2023-11-17T07:40:37.709Z,0.41
2023-11-17T07:43:04.329Z,0.30
2023-11-17T07:45:30.867Z,0.25
2023-11-17T07:47:57.439Z,0.27
2023-11-17T07:50:23.983Z,0.25
2023-11-17T07:52:50.534Z,0.31
2023-11-17T07:55:17.132Z,0.28
2023-11-17T07:57:43.690Z,2.85
2023-11-17T08:00:10.363Z,3.99
2023-11-17T08:02:36.945Z,1.86
2023-11-17T08:05:03.566Z,1.15
2023-11-17T08:07:30.286Z,1.57
2023-11-17T08:09:56.930Z,1.01
2023-11-17T08:12:23.488Z,0.67
2023-11-17T08:14:50.080Z,0.65
2023-11-17T08:17:16.703Z,0.52
2023-11-17T08:19:43.364Z,0.68
2023-11-17T08:22:09.965Z,0.59
2023-11-17T08:24:36.562Z,0.49
2023-11-17T08:27:03.119Z,0.47
2023-11-17T08:29:29.663Z,0.38
2023-11-17T08:31:56.352Z,0.44
2023-11-17T08:34:23.199Z,0.48
2023-11-17T08:36:50.050Z,0.56
2023-11-17T08:39:16.603Z,0.40
2023-11-17T08:41:43.195Z,0.50
2023-11-17T08:44:09.771Z,0.51
2023-11-17T08:46:36.418Z,0.54
2023-11-17T08:49:03.059Z,0.55
2023-11-17T08:51:29.650Z,0.49
2023-11-17T08:53:56.243Z,0.35
2023-11-17T08:56:22.835Z,0.33
2023-11-17T08:58:49.434Z,0.36
2023-11-17T09:01:16.071Z,0.41
2023-11-17T09:03:42.714Z,0.35
2023-11-17T09:06:09.281Z,0.26
2023-11-17T09:08:35.931Z,0.28
2023-11-17T09:11:02.481Z,0.35
2023-11-17T09:13:29.120Z,0.31
2023-11-17T09:15:55.887Z,0.34
2023-11-17T09:18:22.506Z,0.31
2023-11-17T09:20:49.094Z,0.33
2023-11-17T09:23:15.658Z,0.28
2023-11-17T09:25:42.353Z,0.34
2023-11-17T09:28:09.010Z,0.38
2023-11-17T09:30:35.692Z,0.40
2023-11-17T09:33:02.258Z,0.38
2023-11-17T09:35:29.273Z,0.34
2023-11-17T09:37:56.136Z,0.51
2023-11-17T09:40:22.921Z,0.50
2023-11-17T09:42:49.627Z,0.34
2023-11-17T09:45:16.203Z,0.34
2023-11-17T09:47:42.962Z,0.32
2023-11-17T09:50:09.601Z,0.42
2023-11-17T09:52:36.178Z,0.39
2023-11-17T09:55:02.794Z,0.47
2023-11-17T09:57:29.424Z,0.37
2023-11-17T09:59:55.978Z,0.33
2023-11-17T10:02:22.763Z,0.29
2023-11-17T10:04:49.580Z,0.28
2023-11-17T10:07:16.167Z,0.39
2023-11-17T10:09:42.728Z,0.35
2023-11-17T10:12:09.326Z,0.23
2023-11-17T10:14:35.941Z,0.29
2023-11-17T10:17:02.675Z,0.28
2023-11-17T10:19:29.435Z,0.25
2023-11-17T10:21:58.486Z,0.35
2023-11-17T10:24:25.820Z,0.26
2023-11-17T10:26:52.409Z,0.37
2023-11-17T10:29:18.998Z,0.49
2023-11-17T10:31:45.627Z,0.56
2023-11-17T10:34:12.357Z,0.52
2023-11-17T10:36:39.003Z,0.49
2023-11-17T10:39:05.623Z,0.46
2023-11-17T10:41:32.547Z,0.49
2023-11-17T10:43:59.195Z,0.48
2023-11-17T10:46:26.299Z,0.58
2023-11-17T10:48:52.974Z,0.63
2023-11-17T10:51:19.564Z,0.52
2023-11-17T10:53:46.100Z,0.56
2023-11-17T10:56:12.673Z,0.47
2023-11-17T10:58:39.379Z,0.53
2023-11-17T11:01:05.970Z,0.49
2023-11-17T11:03:32.625Z,0.62
2023-11-17T11:05:59.269Z,0.62
2023-11-17T11:08:25.890Z,0.78
2023-11-17T11:10:52.448Z,0.85
2023-11-17T11:13:18.993Z,0.72
2023-11-17T11:15:45.581Z,0.61
2023-11-17T11:18:12.179Z,0.66
2023-11-17T11:20:38.850Z,1.04
2023-11-17T11:23:05.410Z,1.86
2023-11-17T11:25:32.020Z,2.15
2023-11-17T11:27:58.640Z,1.65
2023-11-17T11:30:25.251Z,1.23
2023-11-17T11:32:51.833Z,1.07
2023-11-17T11:35:18.480Z,0.92
2023-11-17T11:37:45.132Z,2.06
2023-11-17T11:40:11.699Z,1.85
2023-11-17T11:42:38.307Z,1.39
2023-11-17T11:45:04.864Z,1.63
2023-11-17T11:47:31.551Z,2.94
2023-11-17T11:49:58.198Z,2.86
2023-11-17T11:52:24.797Z,1.40
2023-11-17T11:54:51.420Z,1.18
2023-11-17T11:57:17.993Z,2.09
2023-11-17T11:59:44.548Z,2.35
2023-11-17T12:02:11.111Z,1.05
2023-11-17T12:04:37.747Z,0.90
2023-11-17T12:07:04.453Z,0.79
2023-11-17T12:09:31.138Z,0.67
2023-11-17T12:11:57.791Z,0.75
2023-11-17T12:14:24.346Z,0.93
2023-11-17T12:16:51.012Z,0.74
2023-11-17T12:19:17.697Z,0.72
2023-11-17T12:21:44.390Z,0.42
2023-11-17T12:24:10.955Z,0.51
2023-11-17T12:26:37.542Z,1.07
2023-11-17T12:29:04.149Z,1.80
2023-11-17T12:31:30.835Z,2.10
2023-11-17T12:33:57.480Z,1.04
2023-11-17T12:36:24.050Z,1.02
2023-11-17T12:38:50.604Z,0.98
2023-11-17T12:41:17.243Z,1.24
2023-11-17T12:43:43.899Z,1.75
2023-11-17T12:46:10.580Z,2.01
2023-11-17T12:48:37.237Z,2.40
2023-11-17T12:51:03.833Z,2.21
2023-11-17T12:53:42.126Z,1.41
2023-11-17T12:56:15.525Z,0.75
2023-11-17T12:58:42.201Z,0.48
2023-11-17T13:01:08.934Z,0.28
2023-11-17T13:03:35.695Z,0.34
2023-11-17T13:06:02.262Z,0.45
2023-11-17T13:08:28.815Z,0.49
2023-11-17T13:10:55.466Z,0.44
2023-11-17T13:13:22.153Z,0.51
2023-11-17T13:15:48.750Z,0.45
2023-11-17T13:18:15.375Z,0.48
2023-11-17T13:20:41.962Z,0.42
2023-11-17T13:23:08.539Z,0.45
2023-11-17T13:25:35.131Z,0.53
2023-11-17T13:28:01.726Z,0.38
2023-11-17T13:30:28.326Z,0.34
2023-11-17T13:32:55.014Z,0.49
2023-11-17T13:35:21.636Z,0.36
2023-11-17T13:37:48.288Z,0.34
2023-11-17T13:40:14.905Z,0.32
2023-11-17T13:42:41.468Z,0.22
2023-11-17T13:45:08.206Z,0.36
2023-11-17T13:47:35.050Z,0.32
2023-11-17T13:50:01.739Z,0.21
2023-11-17T13:52:28.340Z,0.24
2023-11-17T13:54:54.939Z,0.26
2023-11-17T13:57:21.578Z,0.22
2023-11-17T13:59:48.149Z,0.24
2023-11-17T14:02:14.771Z,0.30
2023-11-17T14:04:41.364Z,0.36
2023-11-17T14:07:07.967Z,0.29
2023-11-17T14:09:34.649Z,0.22
2023-11-17T14:12:01.300Z,0.23
2023-11-17T14:14:27.968Z,0.32
2023-11-17T14:16:54.694Z,0.26
2023-11-17T14:19:21.395Z,0.34
2023-11-17T14:21:48.129Z,0.30
2023-11-17T14:24:14.733Z,0.29
2023-11-17T14:26:41.287Z,0.34
2023-11-17T14:29:07.836Z,0.24
2023-11-17T14:31:34.501Z,0.24
2023-11-17T14:34:01.283Z,0.29
2023-11-17T14:36:27.849Z,0.54
2023-11-17T14:38:54.462Z,0.34
2023-11-17T14:41:21.455Z,0.23
2023-11-17T14:43:48.689Z,0.28
2023-11-17T14:46:15.524Z,0.32
2023-11-17T14:48:42.285Z,0.24
2023-11-17T14:51:08.955Z,0.24
2023-11-17T14:53:35.551Z,0.22
2023-11-17T14:56:02.411Z,0.24
2023-11-17T14:58:29.171Z,0.39
2023-11-17T15:00:55.834Z,0.35
2023-11-17T15:03:22.505Z,0.45
2023-11-17T15:05:49.138Z,0.32
2023-11-17T15:08:15.698Z,0.28
2023-11-17T15:10:42.521Z,0.35
2023-11-17T15:13:09.210Z,0.33
2023-11-17T15:15:35.802Z,0.38
2023-11-17T15:18:02.405Z,0.39
2023-11-17T15:20:29.012Z,0.33
2023-11-17T15:22:55.568Z,0.41
2023-11-17T15:25:22.163Z,0.42
2023-11-17T15:27:48.758Z,0.56
2023-11-17T15:30:15.359Z,0.56
2023-11-17T15:32:42.003Z,0.43
2023-11-17T15:35:08.581Z,0.48
2023-11-17T15:37:35.132Z,0.42
2023-11-17T15:40:01.699Z,0.46
2023-11-17T15:42:28.288Z,0.44
2023-11-17T15:44:54.842Z,0.43
2023-11-17T15:47:21.432Z,0.56
2023-11-17T15:49:48.072Z,0.51
2023-11-17T15:52:14.708Z,0.54
2023-11-17T15:54:41.320Z,0.56
2023-11-17T15:57:07.909Z,0.60
2023-11-17T15:59:34.492Z,0.45
2023-11-17T16:02:03.567Z,0.55
2023-11-17T16:04:30.960Z,0.59
2023-11-17T16:06:57.624Z,0.54
2023-11-17T16:09:24.215Z,0.49
2023-11-17T16:11:50.825Z,0.50
2023-11-17T16:14:17.395Z,0.43
2023-11-17T16:16:44.209Z,0.50
2023-11-17T16:19:10.955Z,0.44
2023-11-17T16:21:37.716Z,0.60
2023-11-17T16:24:04.320Z,0.68
2023-11-17T16:26:30.885Z,0.60
2023-11-17T16:28:57.467Z,0.59
2023-11-17T16:31:24.178Z,0.94
2023-11-17T16:33:50.834Z,1.01
2023-11-17T16:36:19.526Z,0.86
2023-11-17T16:38:47.630Z,0.68
2023-11-17T16:41:14.228Z,0.73
2023-11-17T16:43:40.943Z,0.68
2023-11-17T16:46:07.559Z,0.66
2023-11-17T16:48:34.260Z,0.71
2023-11-17T16:51:01.405Z,1.12
2023-11-17T16:53:28.366Z,1.15
2023-11-17T16:55:55.097Z,1.40
2023-11-17T16:58:21.835Z,1.35
2023-11-17T17:00:48.460Z,1.21
2023-11-17T17:03:15.143Z,0.86
2023-11-17T17:05:41.793Z,1.05
2023-11-17T17:08:08.908Z,0.79
2023-11-17T17:10:35.629Z,0.70
2023-11-17T17:13:02.308Z,0.72
2023-11-17T17:15:28.923Z,0.78
2023-11-17T17:17:56.260Z,0.82
2023-11-17T17:20:23.311Z,0.98
2023-11-17T17:22:49.955Z,0.89
2023-11-17T17:25:16.674Z,0.66
2023-11-17T17:27:43.314Z,0.56
2023-11-17T17:30:09.930Z,0.78
2023-11-17T17:32:36.506Z,0.82
2023-11-17T17:35:03.102Z,1.08
2023-11-17T17:37:29.740Z,1.03
2023-11-17T17:39:56.318Z,1.24
2023-11-17T17:42:22.930Z,1.09
2023-11-17T17:44:49.490Z,0.95
2023-11-17T17:47:16.176Z,0.93
2023-11-17T17:49:42.848Z,1.06
2023-11-17T17:52:09.472Z,1.40
2023-11-17T17:54:36.079Z,1.11
2023-11-17T17:57:02.646Z,0.94
2023-11-17T17:59:29.249Z,1.02
2023-11-17T18:01:56.053Z,0.87
2023-11-17T18:04:22.837Z,1.37
2023-11-17T18:06:49.702Z,2.08
2023-11-17T18:09:16.379Z,2.01
2023-11-17T18:11:42.990Z,1.98
2023-11-17T18:14:09.591Z,2.19
2023-11-17T18:16:36.190Z,1.73
2023-11-17T18:19:02.880Z,1.71
2023-11-17T18:21:29.501Z,1.80
2023-11-17T18:23:56.136Z,1.76
2023-11-17T18:26:26.674Z,1.37
2023-11-17T18:28:53.879Z,1.27
2023-11-17T18:31:20.609Z,1.37
2023-11-17T18:33:47.298Z,1.40
2023-11-17T18:36:13.921Z,1.29
2023-11-17T18:38:40.476Z,1.08
2023-11-17T18:41:07.073Z,1.28
2023-11-17T18:43:33.658Z,1.33
2023-11-17T18:46:00.329Z,1.37
2023-11-17T18:48:26.948Z,1.47
2023-11-17T18:50:53.625Z,1.25
2023-11-17T18:53:20.238Z,1.38
2023-11-17T18:55:46.883Z,1.19
2023-11-17T18:58:13.506Z,0.91
2023-11-17T19:00:40.119Z,0.95
2023-11-17T19:03:06.794Z,1.18
2023-11-17T19:05:33.459Z,1.37
2023-11-17T19:08:00.106Z,1.15
2023-11-17T19:10:26.880Z,1.15
2023-11-17T19:12:53.505Z,1.22
2023-11-17T19:15:20.090Z,0.99
2023-11-17T19:17:46.712Z,0.55
2023-11-17T19:20:13.318Z,0.54
2023-11-17T19:22:39.941Z,0.63
2023-11-17T19:25:06.532Z,0.78
2023-11-17T19:27:33.128Z,1.12
2023-11-17T19:30:01.050Z,1.07
2023-11-17T19:32:27.719Z,1.35
2023-11-17T19:34:54.443Z,0.91
2023-11-17T19:37:21.198Z,1.39
2023-11-17T19:39:47.828Z,1.61
2023-11-17T19:42:14.401Z,1.43
2023-11-17T19:44:50.010Z,1.64
2023-11-17T19:47:17.951Z,1.75
2023-11-17T19:49:44.570Z,1.71
2023-11-17T19:52:11.179Z,3.50
2023-11-17T19:54:37.754Z,7.80
2023-11-17T19:57:04.363Z,4.51
2023-11-17T19:59:30.908Z,2.50
2023-11-17T20:01:57.553Z,2.73
2023-11-17T20:04:24.270Z,3.33
2023-11-17T20:06:50.926Z,2.56
2023-11-17T20:09:17.538Z,2.06
2023-11-17T20:11:44.207Z,2.17
2023-11-17T20:14:10.878Z,3.36
2023-11-17T20:16:37.595Z,2.87
2023-11-17T20:19:04.305Z,3.52
2023-11-17T20:21:30.938Z,3.20
2023-11-17T20:23:57.575Z,3.33
2023-11-17T20:26:24.225Z,2.92
2023-11-17T20:28:50.874Z,2.76
2023-11-17T20:31:17.572Z,2.22
2023-11-17T20:33:44.388Z,2.59
2023-11-17T20:36:10.989Z,3.04
2023-11-17T20:38:39.412Z,3.67
2023-11-17T20:41:07.123Z,3.50
2023-11-17T20:43:33.807Z,3.62
2023-11-17T20:46:00.439Z,3.87
2023-11-17T20:48:27.118Z,3.51
2023-11-17T20:50:53.737Z,3.51
2023-11-17T20:53:20.331Z,3.33
2023-11-17T20:55:46.981Z,3.25
2023-11-17T20:58:15.149Z,2.92
2023-11-17T21:00:42.254Z,2.69
2023-11-17T21:03:09.144Z,3.08
2023-11-17T21:05:35.884Z,2.17
2023-11-17T21:08:02.553Z,1.52
2023-11-17T21:10:29.175Z,1.67
2023-11-17T21:12:55.769Z,1.79
2023-11-17T21:15:22.805Z,1.87
2023-11-17T21:17:49.572Z,2.05
2023-11-17T21:20:16.229Z,2.71
2023-11-17T21:22:43.007Z,2.63
2023-11-17T21:25:09.705Z,2.10
2023-11-17T21:27:36.271Z,2.19
2023-11-17T21:30:02.877Z,2.03
2023-11-17T21:32:29.450Z,1.96
2023-11-17T21:34:56.058Z,1.89
2023-11-17T21:37:22.676Z,1.85
2023-11-17T21:39:49.350Z,2.07
2023-11-17T21:42:16.126Z,1.94
2023-11-17T21:44:42.737Z,1.86
2023-11-17T21:47:09.339Z,1.73
2023-11-17T21:49:35.940Z,1.60
2023-11-17T21:52:02.526Z,1.57
2023-11-17T21:54:29.126Z,1.47
2023-11-17T21:56:55.676Z,1.28
2023-11-17T21:59:22.232Z,1.29
2023-11-17T22:01:48.882Z,1.20
2023-11-17T22:04:15.557Z,1.35
2023-11-17T22:06:42.109Z,1.11
2023-11-17T22:09:08.717Z,1.06
2023-11-17T22:11:35.332Z,1.42
2023-11-17T22:14:02.066Z,1.26
2023-11-17T22:16:28.988Z,1.41
2023-11-17T22:18:55.580Z,1.55
2023-11-17T22:21:22.138Z,1.54
2023-11-17T22:23:49.702Z,1.92
2023-11-17T22:26:16.286Z,1.70
2023-11-17T22:28:42.921Z,1.61
2023-11-17T22:31:09.561Z,1.82
2023-11-17T22:33:36.196Z,1.90
2023-11-17T22:36:02.770Z,1.89
2023-11-17T22:38:29.322Z,1.73
2023-11-17T22:40:55.921Z,1.89
2023-11-17T22:43:22.570Z,2.00
2023-11-17T22:45:49.170Z,2.01
2023-11-17T22:48:15.846Z,2.00
2023-11-17T22:50:42.428Z,2.11
2023-11-17T22:53:09.087Z,2.11
2023-11-17T22:55:35.711Z,2.22
2023-11-17T22:58:02.290Z,2.07
2023-11-17T23:00:28.882Z,1.90
2023-11-17T23:02:55.585Z,1.75
2023-11-17T23:05:22.220Z,1.85
2023-11-17T23:07:48.818Z,2.22
2023-11-17T23:10:15.423Z,2.21
2023-11-17T23:12:42.030Z,2.02
2023-11-17T23:15:08.644Z,2.17
2023-11-17T23:17:35.323Z,1.94
2023-11-17T23:20:02.033Z,1.99
2023-11-17T23:22:28.702Z,1.91
2023-11-17T23:24:55.308Z,1.97
2023-11-17T23:27:21.893Z,2.07
2023-11-17T23:29:48.483Z,2.05
2023-11-17T23:32:15.202Z,1.88
2023-11-17T23:34:41.825Z,1.80
2023-11-17T23:37:08.442Z,1.84
2023-11-17T23:39:35.048Z,2.05
2023-11-17T23:42:01.612Z,2.07
2023-11-17T23:44:28.160Z,1.61
2023-11-17T23:46:54.854Z,1.70
2023-11-17T23:49:21.435Z,1.83
2023-11-17T23:51:48.018Z,1.88
2023-11-17T23:54:14.621Z,1.88
2023-11-17T23:56:41.228Z,2.06
2023-11-17T23:59:07.833Z,2.16
